Time;durP1;ratioP1;P1;durP2;ratioP2;P2;SDS_P1;SDS_P2;PMS_P1;PMS_P2;Temp;Humidity;BMP_temperature;BMP_pressure;BME280_temperature;BME280_humidity;BME280_pressure;Samples;Min_cycle;Max_cycle;Signal;HPM_P1;HPM_P2
2023/03/06 00:00:56;;;;;;;8.68;7.78;;;;;;;2.07;100.00;100848.00;5071077;28;20204;-76
2023/03/06 00:03:22;;;;;;;9.30;8.40;;;;;;;2.09;100.00;100846.19;5071292;28;20021;-76
2023/03/06 00:05:48;;;;;;;9.68;8.32;;;;;;;2.11;100.00;100846.97;5071261;28;20036;-79
2023/03/06 00:08:14;;;;;;;9.65;7.60;;;;;;;2.14;100.00;100846.84;5078049;28;20034;-77
2023/03/06 00:10:40;;;;;;;9.15;7.50;;;;;;;2.03;100.00;100834.31;5073234;28;20518;-76
2023/03/06 00:13:10;;;;;;;10.93;7.72;;;;;;;2.01;100.00;100840.44;5069912;28;20024;-76
2023/03/06 00:15:35;;;;;;;9.38;7.82;;;;;;;2.04;100.00;100836.00;5050350;28;20028;-76
2023/03/06 00:18:04;;;;;;;8.85;7.50;;;;;;;2.03;100.00;100834.31;5070941;28;20496;-77
2023/03/06 00:20:31;;;;;;;9.70;8.30;;;;;;;2.03;100.00;100831.72;5071370;28;20404;-76
2023/03/06 00:22:57;;;;;;;9.48;8.48;;;;;;;2.00;100.00;100823.16;5050004;28;20443;-76
2023/03/06 00:25:24;;;;;;;10.98;8.73;;;;;;;2.00;100.00;100823.16;5050799;28;20029;-77
2023/03/06 00:27:50;;;;;;;9.88;8.57;;;;;;;1.97;100.00;100824.13;5047499;28;20593;-80
2023/03/06 00:30:18;;;;;;;10.50;9.48;;;;;;;1.88;100.00;100820.16;5055802;28;20032;-76
2023/03/06 00:32:43;;;;;;;11.82;9.27;;;;;;;1.92;100.00;100820.03;5069695;28;20113;-76
2023/03/06 00:35:09;;;;;;;10.70;8.70;;;;;;;1.84;100.00;100813.41;5069329;28;20044;-74
2023/03/06 00:37:35;;;;;;;11.23;9.45;;;;;;;1.87;100.00;100818.47;5051118;28;20392;-78
2023/03/06 00:40:04;;;;;;;11.55;8.73;;;;;;;1.76;100.00;100810.25;5069418;28;20105;-75
2023/03/06 00:42:29;;;;;;;10.70;9.57;;;;;;;1.71;100.00;100806.16;5073754;28;20021;-75
2023/03/06 00:44:55;;;;;;;11.40;9.93;;;;;;;1.69;100.00;100813.16;5047131;28;20374;-75
2023/03/06 00:47:21;;;;;;;12.25;9.80;;;;;;;1.66;100.00;100808.94;5068904;28;20081;-75
2023/03/06 00:49:46;;;;;;;11.57;9.48;;;;;;;1.68;100.00;100798.50;5070475;28;20021;-75
2023/03/06 00:52:15;;;;;;;10.23;9.10;;;;;;;1.62;100.00;100799.56;5070139;28;20039;-75
2023/03/06 00:54:41;;;;;;;10.73;9.63;;;;;;;1.59;100.00;100802.25;5070093;28;20029;-78
2023/03/06 00:57:10;;;;;;;15.60;10.88;;;;;;;1.48;100.00;100794.03;5068628;28;20503;-74
2023/03/06 00:59:35;;;;;;;12.18;10.27;;;;;;;1.50;100.00;100800.00;5050223;28;20400;-75
2023/03/06 01:02:01;;;;;;;12.43;10.27;;;;;;;1.48;100.00;100794.03;5068145;28;20033;-75
2023/03/06 01:04:30;;;;;;;12.05;10.77;;;;;;;1.45;100.00;100794.16;5052039;28;20040;-75
2023/03/06 01:06:55;;;;;;;13.70;10.93;;;;;;;1.42;100.00;100783.91;5069708;28;20473;-75
2023/03/06 01:09:28;;;;;;;12.38;10.88;;;;;;;1.40;100.00;100785.72;5069666;28;20024;-76
2023/03/06 01:11:54;;;;;;;;;;;;;;;1.52;100.00;100780.91;5051695;28;20032;-76
2023/03/06 01:14:19;;;;;;;15.48;11.43;;;;;;;1.31;100.00;100783.47;5070507;28;20380;-79
2023/03/06 01:16:45;;;;;;;14.88;11.32;;;;;;;1.29;100.00;100785.25;5054422;28;20029;-76
2023/03/06 01:19:12;;;;;;;13.75;11.48;;;;;;;1.22;100.00;100777.72;5069802;28;20032;-76
2023/03/06 01:21:37;;;;;;;15.02;11.85;;;;;;;1.14;100.00;100779.72;5041501;28;21089;-76
2023/03/06 01:24:03;;;;;;;15.77;11.95;;;;;;;1.14;100.00;100779.72;5051319;28;20029;-76
2023/03/06 01:26:39;;;;;;;;;;;;;;;;;;;;;
2023/03/06 01:29:05;;;;;;;14.65;11.73;;;;;;;1.06;100.00;100786.09;5068621;28;20035;-76
2023/03/06 01:31:31;;;;;;;13.68;11.27;;;;;;;1.01;100.00;100772.44;5068431;28;20115;-76
2023/03/06 01:33:57;;;;;;;13.30;11.63;;;;;;;0.94;100.00;100779.59;5049801;28;20060;-76
2023/03/06 01:36:23;;;;;;;13.57;11.95;;;;;;;0.91;100.00;100777.13;5065904;28;20684;-76
2023/03/06 01:38:54;;;;;;;12.82;11.40;;;;;;;0.92;100.00;100771.88;5068220;28;20063;-76
2023/03/06 01:41:22;;;;;;;14.05;11.52;;;;;;;0.83;100.00;100779.16;5069352;28;20396;-76
2023/03/06 01:43:48;;;;;;;12.57;11.25;;;;;;;0.87;100.00;100770.38;5071668;28;20063;-76
2023/03/06 01:46:32;;;;;;;16.63;12.02;;;;;;;0.89;100.00;100768.56;5053738;28;20052;-76
2023/03/06 01:49:06;;;;;;;13.98;11.15;;;;;;;0.81;100.00;100763.66;5071387;28;20035;-76
2023/03/06 01:51:38;;;;;;;12.77;11.50;;;;;;;0.72;100.00;100763.09;5069886;28;20396;-76
2023/03/06 01:54:11;;;;;;;13.75;11.18;;;;;;;0.63;100.00;100749.59;5073917;28;20056;-76
2023/03/06 01:56:38;;;;;;;13.63;12.13;;;;;;;0.65;100.00;100756.47;5070176;28;20040;-78
2023/03/06 01:59:04;;;;;;;13.82;12.10;;;;;;;0.58;100.00;100753.25;5070580;28;20027;-79
2023/03/06 02:01:31;;;;;;;14.38;12.55;;;;;;;0.54;100.00;100754.25;5052392;28;20028;-76
2023/03/06 02:03:58;;;;;;;15.63;13.13;;;;;;;0.51;100.00;100752.63;5071838;28;20490;-76
2023/03/06 02:06:37;;;;;;;13.35;11.95;;;;;;;0.52;100.00;100748.28;5071523;28;20138;-76
2023/03/06 02:09:04;;;;;;;13.43;12.10;;;;;;;0.45;100.00;100751.97;5071367;28;20021;-75
2023/03/06 02:11:30;;;;;;;14.48;12.25;;;;;;;0.48;100.00;100744.94;5068754;28;20024;-76
2023/03/06 02:13:55;;;;;;;15.50;13.27;;;;;;;0.46;100.00;100744.16;5070469;28;20085;-75
2023/03/06 02:16:25;;;;;;;14.00;12.02;;;;;;;0.42;100.00;100742.56;5071340;28;20181;-76
2023/03/06 02:18:51;;;;;;;14.27;12.77;;;;;;;0.37;100.00;100739.28;5072289;28;20025;-76
2023/03/06 02:21:26;;;;;;;13.80;11.75;;;;;;;0.34;100.00;100739.38;5071216;28;20021;-76
2023/03/06 02:24:19;;;;;;;14.10;12.20;;;;;;;0.32;100.00;100736.84;5071937;28;20380;-75
2023/03/06 02:26:46;;;;;;;13.88;12.35;;;;;;;0.35;100.00;100725.53;5057084;28;20411;-76
2023/03/06 02:29:17;;;;;;;16.33;12.10;;;;;;;0.26;100.00;100725.84;5053945;28;20400;-76
2023/03/06 02:31:43;;;;;;;14.88;12.75;;;;;;;0.26;100.00;100720.69;5055025;28;20079;-76
2023/03/06 02:34:15;;;;;;;14.88;12.85;;;;;;;0.25;100.00;100724.16;5071355;28;20035;-77
2023/03/06 02:36:46;;;;;;;14.15;12.65;;;;;;;0.27;100.00;100719.78;5071624;28;20438;-76
2023/03/06 02:39:17;;;;;;;14.80;13.18;;;;;;;0.19;100.00;100708.84;5071935;28;20681;-75
2023/03/06 02:41:43;;;;;;;14.93;13.23;;;;;;;0.18;100.00;100710.59;5054638;28;20361;-75
2023/03/06 02:44:08;;;;;;;15.55;13.90;;;;;;;0.17;100.00;100708.91;5070899;28;20070;-78
2023/03/06 02:46:34;;;;;;;16.85;13.60;;;;;;;0.13;100.00;100703.88;5067211;28;20036;-75
2023/03/06 02:48:59;;;;;;;15.43;13.75;;;;;;;0.13;100.00;100698.72;5071180;28;20043;-78
2023/03/06 02:51:25;;;;;;;17.02;14.60;;;;;;;0.10;100.00;100704.00;5069533;28;20035;-78
2023/03/06 02:54:00;;;;;;;15.43;13.80;;;;;;;0.01;100.00;100701.72;5069577;28;20036;-75
2023/03/06 02:56:25;;;;;;;16.50;14.15;;;;;;;-0.01;100.00;100692.25;5070553;28;20067;-75
2023/03/06 02:58:54;;;;;;;16.45;14.30;;;;;;;-0.04;100.00;100692.34;5071242;28;20044;-78
2023/03/06 03:01:19;;;;;;;17.40;15.25;;;;;;;-0.05;100.00;100690.66;5069857;28;20032;-75
2023/03/06 03:03:44;;;;;;;18.45;15.25;;;;;;;-0.03;100.00;100688.84;5070633;28;20040;-75
2023/03/06 03:06:16;;;;;;;17.55;15.20;;;;;;;-0.04;100.00;100681.16;5073219;28;20068;-75
2023/03/06 03:08:42;;;;;;;19.20;15.68;;;;;;;-0.07;100.00;100683.84;5053880;28;20032;-75
2023/03/06 03:11:11;;;;;;;19.45;16.30;;;;;;;-0.11;100.00;100680.50;5070607;28;20522;-75
2023/03/06 03:13:37;;;;;;;17.48;15.32;;;;;;;-0.07;100.00;100682.09;5052347;28;20116;-75
2023/03/06 03:16:08;;;;;;;20.20;15.70;;;;;;;-0.19;100.00;100690.28;5071266;28;20027;-76
2023/03/06 03:18:33;;;;;;;19.55;16.10;;;;;;;-0.16;100.00;100681.56;5069194;28;20043;-75
2023/03/06 03:20:59;;;;;;;18.73;15.25;;;;;;;-0.20;100.00;100675.66;5048370;28;20029;-76
2023/03/06 03:23:25;;;;;;;18.15;15.88;;;;;;;-0.21;100.00;100686.88;5050817;28;20370;-79
2023/03/06 03:25:54;;;;;;;19.05;16.98;;;;;;;-0.22;100.00;100682.63;5053577;28;20102;-76
2023/03/06 03:28:19;;;;;;;20.98;16.50;;;;;;;-0.25;100.00;100681.88;5050828;28;20564;-76
2023/03/06 03:30:45;;;;;;;19.58;16.90;;;;;;;-0.26;100.00;100681.03;5053786;28;20040;-79
2023/03/06 03:33:11;;;;;;;22.17;17.33;;;;;;;-0.26;100.00;100675.84;5055719;28;20211;-76
2023/03/06 03:35:37;;;;;;;21.00;16.83;;;;;;;-0.28;100.00;100663.88;5071160;28;20063;-76
2023/03/06 03:38:02;;;;;;;20.67;17.02;;;;;;;-0.28;100.00;100662.13;5071775;28;20036;-76
2023/03/06 03:40:28;;;;;;;19.55;17.45;;;;;;;-0.30;100.00;100666.50;5070772;28;20024;-76
2023/03/06 03:42:53;;;;;;;20.35;17.35;;;;;;;-0.32;100.00;100660.53;5069033;28;20025;-77
2023/03/06 03:45:20;;;;;;;20.25;17.55;;;;;;;-0.29;100.00;100663.03;5072613;28;20563;-76
2023/03/06 03:47:45;;;;;;;21.90;18.00;;;;;;;-0.33;100.00;100659.69;5070476;28;20554;-76
2023/03/06 03:50:11;;;;;;;23.80;19.40;;;;;;;-0.31;100.00;100651.91;5071533;28;20017;-76
2023/03/06 03:52:36;;;;;;;23.52;19.58;;;;;;;-0.34;100.00;100652.00;5071307;28;20020;-79
2023/03/06 03:55:03;;;;;;;23.73;19.58;;;;;;;-0.30;100.00;100647.56;5068580;28;20032;-76
2023/03/06 03:57:31;;;;;;;26.95;21.27;;;;;;;-0.31;100.00;100644.16;5071172;28;20024;-76
2023/03/06 03:59:57;;;;;;;25.08;20.42;;;;;;;-0.28;100.00;100641.44;5070556;28;20425;-76
2023/03/06 04:02:22;;;;;;;26.67;21.98;;;;;;;-0.29;100.00;100633.75;5067721;28;20094;-76
2023/03/06 04:04:48;;;;;;;30.73;23.00;;;;;;;-0.27;100.00;100631.97;5052536;28;20518;-76
2023/03/06 04:07:14;;;;;;;30.98;23.65;;;;;;;-0.27;100.00;100630.22;5052198;28;20051;-76
2023/03/06 04:09:40;;;;;;;33.30;25.15;;;;;;;-0.26;100.00;100628.47;5070493;28;20052;-76
2023/03/06 04:12:06;;;;;;;36.30;25.48;;;;;;;-0.24;100.00;100630.13;5062292;28;20017;-76
2023/03/06 04:14:31;;;;;;;35.55;27.33;;;;;;;-0.24;100.00;100622.34;5050087;28;20025;-76
2023/03/06 04:16:57;;;;;;;38.42;28.05;;;;;;;-0.24;100.00;100626.69;5067273;28;20020;-76
2023/03/06 04:19:22;;;;;;;34.00;26.20;;;;;;;-0.23;100.00;100628.38;5070282;28;20020;-76
2023/03/06 04:21:48;;;;;;;39.55;28.80;;;;;;;-0.26;100.00;100628.47;5051051;28;20028;-76
2023/03/06 04:24:13;;;;;;;40.75;28.33;;;;;;;-0.29;100.00;100631.16;5068314;28;20058;-75
2023/03/06 04:26:39;;;;;;;40.10;29.40;;;;;;;-0.29;100.00;100624.25;5069331;28;20028;-76
2023/03/06 04:29:04;;;;;;;39.42;28.67;;;;;;;-0.28;100.00;100620.78;5065888;28;20032;-76
2023/03/06 04:31:29;;;;;;;41.38;28.98;;;;;;;-0.27;100.00;100621.63;5068488;28;20130;-76
2023/03/06 04:33:55;;;;;;;45.35;29.33;;;;;;;-0.24;100.00;100622.34;5069453;28;20561;-76
2023/03/06 04:36:29;;;;;;;43.35;31.33;;;;;;;-0.19;100.00;100620.47;5069901;28;20024;-75
2023/03/06 04:38:54;;;;;;;44.85;31.75;;;;;;;-0.14;100.00;100610.81;5051730;28;20124;-76
2023/03/06 04:41:20;;;;;;;47.33;32.72;;;;;;;-0.13;100.00;100617.66;5071104;28;20021;-76
2023/03/06 04:43:45;;;;;;;45.35;33.42;;;;;;;-0.11;100.00;100618.47;5067317;28;20024;-76
2023/03/06 04:46:10;;;;;;;44.78;32.35;;;;;;;-0.11;100.00;100613.28;5060303;28;20924;-76
2023/03/06 04:48:36;;;;;;;53.50;34.90;;;;;;;-0.08;100.00;100602.84;5067128;28;20040;-75
2023/03/06 04:51:01;;;;;;;52.70;33.80;;;;;;;-0.06;100.00;100595.88;5068754;28;20028;-76
2023/03/06 04:53:27;;;;;;;50.17;35.05;;;;;;;-0.03;100.00;100606.09;5070928;28;20029;-75
2023/03/06 04:55:55;;;;;;;54.25;37.08;;;;;;;-0.05;100.00;100602.72;5070441;28;20025;-76
2023/03/06 04:58:24;;;;;;;53.92;35.90;;;;;;;-0.02;100.00;100607.78;5068765;28;20582;-76
2023/03/06 05:00:49;;;;;;;56.65;37.38;;;;;;;0.01;100.00;100596.53;5035098;28;20020;-77
2023/03/06 05:03:15;;;;;;;57.20;37.15;;;;;;;0.02;100.00;100597.38;5068107;28;20032;-75
2023/03/06 05:05:46;;;;;;;54.58;37.15;;;;;;;0.03;100.00;100601.66;5068126;28;20104;-75
2023/03/06 05:08:14;;;;;;;59.78;37.38;;;;;;;0.03;100.00;100596.47;5069346;28;20224;-75
2023/03/06 05:10:40;;;;;;;58.33;37.15;;;;;;;0.04;100.00;100598.16;5051490;28;20013;-75
2023/03/06 05:13:10;;;;;;;58.15;37.60;;;;;;;0.04;100.00;100596.44;5050605;28;20023;-75
2023/03/06 05:15:36;;;;;;;57.10;38.00;;;;;;;0.10;100.00;100591.03;5050114;28;20028;-75
2023/03/06 05:18:01;;;;;;;58.08;37.80;;;;;;;0.12;100.00;100590.97;5071188;28;20138;-75
2023/03/06 05:20:30;;;;;;;56.47;37.97;;;;;;;0.15;100.00;100577.94;5067626;28;20672;-76
2023/03/06 05:22:55;;;;;;;57.75;37.58;;;;;;;0.20;100.00;100581.19;5068353;28;20020;-76
2023/03/06 05:25:23;;;;;;;56.58;38.13;;;;;;;0.20;100.00;100581.19;5069547;28;20465;-76
2023/03/06 05:27:50;;;;;;;57.28;37.17;;;;;;;0.20;100.00;100581.19;5069130;28;20170;-75
2023/03/06 05:30:15;;;;;;;57.67;38.08;;;;;;;0.21;100.00;100585.47;5068060;28;20127;-75
2023/03/06 05:32:41;;;;;;;61.85;37.28;;;;;;;0.23;100.00;100581.94;5067143;28;20905;-76
2023/03/06 05:35:07;;;;;;;58.03;37.53;;;;;;;0.21;100.00;100581.16;5052234;28;20431;-76
2023/03/06 05:37:33;;;;;;;55.40;37.05;;;;;;;0.23;100.00;100575.91;5065963;28;20507;-76
2023/03/06 05:39:58;;;;;;;58.35;38.75;;;;;;;0.27;100.00;100574.91;5066873;28;20151;-76
2023/03/06 05:42:24;;;;;;;58.50;37.95;;;;;;;0.27;100.00;100580.06;5068137;28;20024;-75
2023/03/06 05:44:50;;;;;;;62.17;38.92;;;;;;;0.27;100.00;100572.31;5051156;28;20048;-76
2023/03/06 05:47:15;;;;;;;59.20;37.83;;;;;;;0.30;100.00;100578.22;5067016;28;20558;-76
2023/03/06 05:49:41;;;;;;;59.53;37.80;;;;;;;0.32;100.00;100580.75;5068862;28;20024;-75
2023/03/06 05:52:07;;;;;;;59.38;38.05;;;;;;;0.34;100.00;100581.53;5067119;28;20059;-78
2023/03/06 05:54:39;;;;;;;61.42;39.38;;;;;;;0.35;100.00;100577.22;5068831;28;20032;-75
2023/03/06 05:57:07;;;;;;;60.72;38.72;;;;;;;0.37;100.00;100571.06;5068726;28;20024;-75
2023/03/06 05:59:35;;;;;;;64.47;39.70;;;;;;;0.38;100.00;100570.16;5069092;28;20060;-75
2023/03/06 06:02:02;;;;;;;62.30;40.03;;;;;;;0.37;100.00;100567.66;5065142;28;20527;-76
2023/03/06 06:04:28;;;;;;;59.67;39.58;;;;;;;0.40;100.00;100565.81;5067903;28;20123;-75
2023/03/06 06:06:55;;;;;;;61.60;38.95;;;;;;;0.40;100.00;100578.75;5070128;28;20150;-75
2023/03/06 06:09:21;;;;;;;61.45;39.28;;;;;;;0.42;100.00;100574.38;5066156;28;20036;-75
2023/03/06 06:11:53;;;;;;;62.13;40.75;;;;;;;0.45;100.00;100574.25;5069378;28;20035;-75
2023/03/06 06:14:19;;;;;;;61.00;39.20;;;;;;;0.44;100.00;100569.97;5068479;28;20035;-76
2023/03/06 06:16:45;;;;;;;61.60;39.88;;;;;;;0.45;100.00;100563.91;5069527;28;20025;-76
2023/03/06 06:19:17;;;;;;;64.15;39.58;;;;;;;0.46;100.00;100570.75;5068184;28;20103;-76
2023/03/06 06:21:48;;;;;;;62.00;39.83;;;;;;;0.49;100.00;100578.41;5067544;28;20103;-76
2023/03/06 06:24:17;;;;;;;63.25;41.03;;;;;;;0.49;100.00;100573.25;5052915;28;20024;-76
2023/03/06 06:26:44;;;;;;;62.53;40.55;;;;;;;0.50;100.00;100566.31;5050516;28;20057;-75
2023/03/06 06:29:10;;;;;;;63.13;41.38;;;;;;;0.53;100.00;100568.78;5069710;28;20058;-75
2023/03/06 06:31:36;;;;;;;60.83;41.00;;;;;;;0.53;100.00;100572.22;5037574;28;20045;-75
2023/03/06 06:34:06;;;;;;;59.70;39.53;;;;;;;0.55;100.00;100567.81;5050318;28;20048;-78
2023/03/06 06:36:32;;;;;;;64.18;41.63;;;;;;;0.57;100.00;100570.34;5050730;28;20033;-79
2023/03/06 06:38:58;;;;;;;61.50;40.72;;;;;;;0.57;100.00;100566.03;5051709;28;20374;-75
2023/03/06 06:41:24;;;;;;;62.63;41.88;;;;;;;0.61;100.00;100570.19;5048098;28;20032;-75
2023/03/06 06:43:49;;;;;;;62.92;42.05;;;;;;;0.62;100.00;100571.88;5049013;28;20477;-75
2023/03/06 06:46:14;;;;;;;66.05;42.40;;;;;;;0.64;100.00;100566.63;5033583;28;20060;-75
2023/03/06 06:48:41;;;;;;;70.13;44.35;;;;;;;0.69;100.00;100566.47;5034442;28;20116;-75
2023/03/06 06:51:06;;;;;;;64.05;43.05;;;;;;;0.71;100.00;100564.66;5050918;28;20072;-75
2023/03/06 06:53:32;;;;;;;67.57;43.50;;;;;;;0.74;100.00;100561.94;5051558;28;20079;-76
2023/03/06 06:55:58;;;;;;;67.85;43.75;;;;;;;0.78;100.00;100564.34;5051447;28;20029;-76
2023/03/06 06:58:24;;;;;;;67.20;43.45;;;;;;;0.85;100.00;100565.00;5037579;28;20029;-76
2023/03/06 07:00:50;;;;;;;68.45;43.83;;;;;;;0.88;100.00;100568.31;5037306;28;20462;-76
2023/03/06 07:03:16;;;;;;;70.43;44.33;;;;;;;0.91;100.00;100569.94;5033092;28;20032;-74
2023/03/06 07:05:42;;;;;;;67.82;43.65;;;;;;;0.96;100.00;100573.19;5051801;28;20041;-75
2023/03/06 07:08:07;;;;;;;67.60;44.80;;;;;;;0.97;100.00;100574.03;5051430;28;20028;-75
2023/03/06 07:10:33;;;;;;;68.47;45.13;;;;;;;1.00;100.00;100576.50;5041630;28;20040;-73
2023/03/06 07:12:58;;;;;;;68.38;44.65;;;;;;;1.03;100.00;100579.81;5044746;28;20444;-75
2023/03/06 07:15:25;;;;;;;66.65;44.53;;;;;;;1.07;100.00;100578.78;5030194;28;20496;-75
2023/03/06 07:17:54;;;;;;;70.40;46.35;;;;;;;1.08;100.00;100577.03;5038160;28;20031;-75
2023/03/06 07:20:19;;;;;;;69.38;45.70;;;;;;;1.10;100.00;100576.06;5047919;28;20031;-76
2023/03/06 07:22:45;;;;;;;70.90;46.65;;;;;;;1.14;100.00;100577.63;5048562;28;20021;-76
2023/03/06 07:25:10;;;;;;;71.25;46.67;;;;;;;1.16;100.00;100581.00;5053092;28;20029;-76
2023/03/06 07:27:36;;;;;;;74.32;47.50;;;;;;;1.17;100.00;100581.84;5036192;28;20078;-75
2023/03/06 07:30:01;;;;;;;77.03;47.90;;;;;;;1.18;100.00;100578.34;5055894;28;20147;-76
2023/03/06 07:32:27;;;;;;;75.40;48.83;;;;;;;1.21;100.00;100576.50;5070977;28;20029;-75
2023/03/06 07:34:52;;;;;;;71.20;47.08;;;;;;;1.24;100.00;100576.38;5053608;28;20385;-76
2023/03/06 07:37:17;;;;;;;75.85;48.88;;;;;;;1.31;100.00;100574.38;5071859;28;20029;-76
2023/03/06 07:39:48;;;;;;;75.78;48.38;;;;;;;1.36;100.00;100575.03;5070498;28;20036;-76
2023/03/06 07:42:14;;;;;;;73.70;48.15;;;;;;;1.45;100.00;100571.22;5070981;28;20021;-75
2023/03/06 07:44:40;;;;;;;74.90;49.15;;;;;;;1.56;100.00;100575.06;5070951;28;20081;-75
2023/03/06 07:47:05;;;;;;;75.25;49.25;;;;;;;1.66;100.00;100566.91;5071229;28;20469;-76
2023/03/06 07:49:34;;;;;;;74.40;47.35;;;;;;;1.68;100.00;100571.13;5079055;28;20035;-79
2023/03/06 07:52:00;;;;;;;75.63;48.00;;;;;;;1.74;100.00;100570.88;5077430;28;20009;-76
2023/03/06 07:54:31;;;;;;;73.32;47.78;;;;;;;1.79;100.00;100560.31;5075651;28;20063;-75
2023/03/06 07:56:57;;;;;;;67.60;46.40;;;;;;;1.80;100.00;100562.84;5060869;28;20021;-76
2023/03/06 07:59:22;;;;;;;70.85;46.85;;;;;;;1.84;100.00;100568.72;5079362;28;20069;-76
2023/03/06 08:01:47;;;;;;;69.55;46.95;;;;;;;1.89;100.00;100571.97;5072086;28;20025;-76
2023/03/06 08:04:12;;;;;;;68.10;46.28;;;;;;;1.92;100.00;100571.84;5069547;28;20031;-75
2023/03/06 08:06:38;;;;;;;63.28;44.33;;;;;;;1.94;100.00;100566.56;5071038;28;20032;-75
2023/03/06 08:09:03;;;;;;;68.57;44.42;;;;;;;1.97;100.00;100574.22;5049324;28;20021;-76
2023/03/06 08:11:29;;;;;;;61.97;44.70;;;;;;;1.99;100.00;100578.44;5072880;28;20024;-78
2023/03/06 08:13:56;;;;;;;61.80;43.13;;;;;;;2.01;100.00;100575.81;5068865;28;20385;-74
2023/03/06 08:16:28;;;;;;;58.75;41.95;;;;;;;2.04;100.00;100573.06;5069415;28;20103;-75
2023/03/06 08:18:54;;;;;;;63.63;43.75;;;;;;;2.07;100.00;100576.38;5052368;28;20397;-75
2023/03/06 08:21:25;;;;;;;58.08;41.15;;;;;;;2.07;100.00;100581.56;5071477;28;20031;-76
2023/03/06 08:23:53;;;;;;;62.78;42.33;;;;;;;2.12;100.00;100578.78;5070907;28;20031;-75
2023/03/06 08:26:25;;;;;;;62.80;44.17;;;;;;;2.15;100.00;100578.63;5071213;28;20024;-81
2023/03/06 08:28:54;;;;;;;57.05;41.60;;;;;;;2.17;100.00;100577.66;5069561;28;20491;-79
2023/03/06 08:31:20;;;;;;;52.97;40.10;;;;;;;2.18;100.00;100575.91;5052858;28;20428;-75
2023/03/06 08:33:45;;;;;;;58.38;41.70;;;;;;;2.29;100.00;100570.25;5071521;28;20024;-76
2023/03/06 08:36:13;;;;;;;54.92;39.70;;;;;;;2.36;100.00;100571.66;5068304;28;20688;-76
2023/03/06 08:38:39;;;;;;;58.53;41.03;;;;;;;2.55;100.00;100577.72;5070271;28;20519;-77
2023/03/06 08:41:04;;;;;;;53.63;39.42;;;;;;;2.73;100.00;100576.03;5070220;28;20017;-77
2023/03/06 08:43:30;;;;;;;49.97;38.13;;;;;;;2.83;100.00;100577.31;5050664;28;20468;-77
2023/03/06 08:45:58;;;;;;;48.67;37.53;;;;;;;2.97;100.00;100574.06;5048279;28;20089;-77
2023/03/06 08:48:24;;;;;;;49.20;35.22;;;;;;;3.04;100.00;100586.69;5029031;28;20017;-77
2023/03/06 08:50:50;;;;;;;44.95;33.38;;;;;;;3.13;100.00;100581.03;5047296;28;20028;-77
2023/03/06 08:53:16;;;;;;;40.10;32.13;;;;;;;3.13;100.00;100583.66;5065200;28;20024;-77
2023/03/06 08:55:41;;;;;;;41.03;32.70;;;;;;;3.12;100.00;100574.16;5066503;28;20043;-77
2023/03/06 08:58:07;;;;;;;43.78;33.80;;;;;;;3.22;100.00;100578.94;5069538;28;20024;-77
2023/03/06 09:00:33;;;;;;;38.92;31.33;;;;;;;3.26;100.00;100576.13;5068377;28;20035;-77
2023/03/06 09:02:59;;;;;;;39.20;31.83;;;;;;;3.33;100.00;100579.28;5070352;28;20111;-77
2023/03/06 09:05:25;;;;;;;38.58;30.90;;;;;;;3.40;100.00;100578.03;5069100;28;20111;-76
2023/03/06 09:07:53;;;;;;;40.33;31.95;;;;;;;3.46;100.00;100582.94;5069398;28;20035;-76
2023/03/06 09:10:21;;;;;;;41.50;33.05;;;;;;;3.61;100.00;100579.63;5052412;28;20521;-76
2023/03/06 09:12:47;;;;;;;39.83;31.05;;;;;;;3.65;100.00;100573.34;5050579;28;20025;-77
2023/03/06 09:15:40;;;;;;;39.92;30.33;;;;;;;3.75;100.00;100574.56;5047882;28;20033;-77
2023/03/06 09:18:05;;;;;;;42.25;31.13;;;;;;;3.79;100.00;100575.25;5048647;28;20032;-76
2023/03/06 09:20:31;;;;;;;38.17;30.55;;;;;;;3.93;100.00;100582.34;5048630;28;20432;-76
2023/03/06 09:22:56;;;;;;;38.60;29.48;;;;;;;4.01;100.00;100575.00;5065606;28;20503;-77
2023/03/06 09:25:22;;;;;;;37.15;29.92;;;;;;;4.13;100.00;100579.56;5067937;28;20039;-77
2023/03/06 09:27:49;;;;;;;35.13;28.45;;;;;;;4.19;100.00;100574.03;5069658;28;20017;-77
2023/03/06 09:30:15;;;;;;;37.03;30.45;;;;;;;4.29;100.00;100577.84;5048612;28;20055;-76
2023/03/06 09:32:41;;;;;;;36.00;28.58;;;;;;;4.32;100.00;100580.28;5069402;28;20058;-76
2023/03/06 09:35:07;;;;;;;32.33;27.15;;;;;;;4.31;100.00;100589.03;5051169;28;20102;-76
2023/03/06 09:37:32;;;;;;;30.95;26.05;;;;;;;4.50;100.00;100594.13;5051944;28;20028;-80
2023/03/06 09:39:57;;;;;;;32.85;27.08;;;;;;;4.47;100.00;100590.84;5052941;28;20024;-78
2023/03/06 09:42:23;;;;;;;33.22;27.65;;;;;;;4.50;100.00;100595.88;5051508;28;20032;-77
2023/03/06 09:44:59;;;;;;;31.20;26.38;;;;;;;4.64;100.00;100588.16;5068342;28;20047;-76
2023/03/06 09:48:02;;;;;;;32.95;26.92;;;;;;;4.78;100.00;100592.63;5069941;28;20032;-77
2023/03/06 09:50:36;;;;;;;27.35;24.42;;;;;;;4.82;100.00;100591.56;5083001;28;20023;-77
2023/03/06 09:53:28;;;;;;;30.67;25.42;;;;;;;4.91;100.00;100598.88;5067811;28;20521;-77
2023/03/06 09:56:13;;;;;;;29.02;24.35;;;;;;;4.92;100.00;100590.97;5085657;28;20059;-77
2023/03/06 09:59:03;;;;;;;27.00;22.92;;;;;;;5.03;100.00;100588.63;5077457;28;20456;-78
2023/03/06 10:01:33;;;;;;;27.13;23.35;;;;;;;5.08;100.00;100584.91;5088700;28;20027;-77
2023/03/06 10:04:30;;;;;;;25.10;21.40;;;;;;;5.23;100.00;100584.06;5085662;28;20029;-77
2023/03/06 10:07:00;;;;;;;25.52;22.20;;;;;;;5.26;100.00;100583.91;5047797;28;20114;-77
2023/03/06 10:09:37;;;;;;;24.42;21.92;;;;;;;5.32;100.00;100578.34;5075684;28;20421;-77
2023/03/06 10:12:27;;;;;;;24.70;21.73;;;;;;;5.52;100.00;100578.03;5063032;28;20016;-77
2023/03/06 10:15:10;;;;;;;23.95;21.10;;;;;;;5.56;100.00;100576.06;5059764;28;20130;-77
2023/03/06 10:17:38;;;;;;;27.45;23.05;;;;;;;5.41;100.00;100580.41;5081768;28;20473;-77
2023/03/06 10:20:24;;;;;;;24.83;22.10;;;;;;;5.41;100.00;100579.56;5078715;28;20032;-76
2023/03/06 10:22:49;;;;;;;23.52;20.65;;;;;;;5.25;100.00;100582.22;5070518;28;20028;-77
2023/03/06 10:25:41;;;;;;;22.85;20.45;;;;;;;5.43;100.00;100583.78;5061156;28;20468;-77
2023/03/06 10:28:09;;;;;;;26.60;19.90;;;;;;;5.51;100.00;100576.34;5085777;28;20028;-77
2023/03/06 10:30:46;;;;;;;23.58;19.70;;;;;;;5.61;99.25;100572.31;5063264;28;20071;-77
2023/03/06 10:33:39;;;;;;;23.52;20.92;;;;;;;5.78;100.00;100571.31;5075953;28;20032;-77
2023/03/06 10:36:05;;;;;;;23.92;21.27;;;;;;;5.81;98.23;100565.91;5062607;28;20081;-77
2023/03/06 10:38:30;;;;;;;21.23;18.48;;;;;;;5.93;97.10;100570.44;5087837;28;20031;-77
2023/03/06 10:41:04;;;;;;;22.95;18.98;;;;;;;5.87;95.49;100567.31;5079639;28;20042;-77
2023/03/06 10:43:30;;;;;;;21.95;19.00;;;;;;;6.12;95.30;100570.19;5074926;28;20028;-77
2023/03/06 10:45:55;;;;;;;20.40;18.23;;;;;;;6.34;93.61;100564.50;5091943;28;20035;-77
2023/03/06 10:48:24;;;;;;;20.35;16.95;;;;;;;6.35;93.47;100571.41;5065895;28;20028;-77
2023/03/06 10:50:50;;;;;;;18.63;16.58;;;;;;;6.34;91.46;100568.88;5075956;28;20024;-77
2023/03/06 10:53:22;;;;;;;19.17;17.05;;;;;;;6.34;92.98;100576.72;5076486;28;20090;-76
2023/03/06 10:55:53;;;;;;;18.52;16.45;;;;;;;6.31;92.85;100574.28;5065076;28;20024;-77
2023/03/06 10:58:28;;;;;;;17.67;15.48;;;;;;;6.41;91.97;100576.28;5074293;28;20487;-77
2023/03/06 11:01:35;;;;;;;19.58;15.70;;;;;;;6.59;91.82;100569.06;5084533;28;20495;-77
2023/03/06 11:04:34;;;;;;;20.73;17.02;;;;;;;6.56;93.11;100572.72;5080408;28;20028;-77
2023/03/06 11:07:17;;;;;;;18.17;16.17;;;;;;;6.40;91.70;100573.72;5058132;28;20104;-75
2023/03/06 11:09:55;;;;;;;18.77;16.77;;;;;;;6.26;92.51;100572.81;5091642;28;20375;-75
2023/03/06 11:12:38;;;;;;;18.33;16.02;;;;;;;6.41;92.51;100567.59;5075931;28;20032;-76
2023/03/06 11:15:11;;;;;;;17.77;15.43;;;;;;;6.33;91.25;100567.22;5071166;28;20492;-76
2023/03/06 11:18:22;;;;;;;15.43;13.70;;;;;;;6.45;91.14;100566.47;5063990;28;20415;-76